sensor_id;sensor_type;location;lat;lon;timestamp;temperature;humidity
52073;DHT22;38074;51.232;6.826;2022-09-09T00:09:17;25.40;52.30
52073;DHT22;38074;51.232;6.826;2022-09-09T00:16:36;25.40;52.30
52073;DHT22;38074;51.232;6.826;2022-09-09T00:23:54;25.40;52.40
52073;DHT22;38074;51.232;6.826;2022-09-09T00:31:16;25.40;52.40
52073;DHT22;38074;51.232;6.826;2022-09-09T00:38:37;25.40;52.40
52073;DHT22;38074;51.232;6.826;2022-09-09T01:01:17;25.40;52.60
52073;DHT22;38074;51.232;6.826;2022-09-09T01:15:59;25.40;52.70
52073;DHT22;38074;51.232;6.826;2022-09-09T01:30:50;25.40;52.80
52073;DHT22;38074;51.232;6.826;2022-09-09T01:38:05;25.40;52.90
52073;DHT22;38074;51.232;6.826;2022-09-09T01:45:22;25.40;52.90
52073;DHT22;38074;51.232;6.826;2022-09-09T01:52:37;25.40;53.00
52073;DHT22;38074;51.232;6.826;2022-09-09T02:00:10;25.40;53.00
52073;DHT22;38074;51.232;6.826;2022-09-09T02:07:48;25.40;52.90
52073;DHT22;38074;51.232;6.826;2022-09-09T02:15:11;25.30;53.60
52073;DHT22;38074;51.232;6.826;2022-09-09T02:22:31;25.30;53.00
52073;DHT22;38074;51.232;6.826;2022-09-09T02:29:50;25.40;53.00
52073;DHT22;38074;51.232;6.826;2022-09-09T02:37:06;25.30;53.00
52073;DHT22;38074;51.232;6.826;2022-09-09T02:44:23;25.40;53.20
52073;DHT22;38074;51.232;6.826;2022-09-09T02:52:01;25.40;53.10
52073;DHT22;38074;51.232;6.826;2022-09-09T02:59:17;25.30;52.80
52073;DHT22;38074;51.232;6.826;2022-09-09T03:06:33;25.30;52.80
52073;DHT22;38074;51.232;6.826;2022-09-09T03:13:48;25.30;52.80
52073;DHT22;38074;51.232;6.826;2022-09-09T03:21:04;25.30;52.60
52073;DHT22;38074;51.232;6.826;2022-09-09T03:28:20;25.30;52.70
52073;DHT22;38074;51.232;6.826;2022-09-09T03:35:36;25.30;52.50
52073;DHT22;38074;51.232;6.826;2022-09-09T03:42:51;25.30;52.40
52073;DHT22;38074;51.232;6.826;2022-09-09T03:50:08;25.30;52.20
52073;DHT22;38074;51.232;6.826;2022-09-09T03:57:25;25.20;52.40
52073;DHT22;38074;51.232;6.826;2022-09-09T04:04:41;25.30;52.40
52073;DHT22;38074;51.232;6.826;2022-09-09T04:11:57;25.30;52.20
52073;DHT22;38074;51.232;6.826;2022-09-09T04:19:13;25.30;52.30
52073;DHT22;38074;51.232;6.826;2022-09-09T04:26:29;25.30;52.30
52073;DHT22;38074;51.232;6.826;2022-09-09T04:33:45;25.30;52.30
52073;DHT22;38074;51.232;6.826;2022-09-09T04:41:01;25.30;52.30
52073;DHT22;38074;51.232;6.826;2022-09-09T04:48:17;25.30;52.50
52073;DHT22;38074;51.232;6.826;2022-09-09T04:55:33;25.30;52.50
52073;DHT22;38074;51.232;6.826;2022-09-09T05:02:50;25.30;52.50
52073;DHT22;38074;51.232;6.826;2022-09-09T05:10:06;25.30;52.50
52073;DHT22;38074;51.232;6.826;2022-09-09T05:17:22;25.30;52.70
52073;DHT22;38074;51.232;6.826;2022-09-09T05:24:38;25.30;53.20
52073;DHT22;38074;51.232;6.826;2022-09-09T05:31:54;25.40;55.30
52073;DHT22;38074;51.232;6.826;2022-09-09T05:39:09;25.30;54.70
52073;DHT22;38074;51.232;6.826;2022-09-09T05:46:27;25.30;54.10
52073;DHT22;38074;51.232;6.826;2022-09-09T05:53:44;25.10;53.80
52073;DHT22;38074;51.232;6.826;2022-09-09T06:01:08;25.20;54.60
52073;DHT22;38074;51.232;6.826;2022-09-09T06:08:25;25.20;54.30
52073;DHT22;38074;51.232;6.826;2022-09-09T06:15:49;25.10;53.60
52073;DHT22;38074;51.232;6.826;2022-09-09T06:23:05;24.70;54.30
52073;DHT22;38074;51.232;6.826;2022-09-09T06:30:20;24.90;54.40
52073;DHT22;38074;51.232;6.826;2022-09-09T06:37:36;24.90;53.50
52073;DHT22;38074;51.232;6.826;2022-09-09T06:44:52;24.90;53.30
52073;DHT22;38074;51.232;6.826;2022-09-09T06:52:08;24.80;53.10
52073;DHT22;38074;51.232;6.826;2022-09-09T06:59:24;24.80;52.60
52073;DHT22;38074;51.232;6.826;2022-09-09T07:06:42;24.90;52.00
52073;DHT22;38074;51.232;6.826;2022-09-09T07:14:01;24.90;51.90
52073;DHT22;38074;51.232;6.826;2022-09-09T07:21:17;24.90;51.70
52073;DHT22;38074;51.232;6.826;2022-09-09T07:28:33;24.90;51.90
52073;DHT22;38074;51.232;6.826;2022-09-09T07:35:48;24.90;51.70
52073;DHT22;38074;51.232;6.826;2022-09-09T07:43:04;25.00;52.10
52073;DHT22;38074;51.232;6.826;2022-09-09T07:50:20;24.90;51.30
52073;DHT22;38074;51.232;6.826;2022-09-09T07:57:35;24.90;51.60
52073;DHT22;38074;51.232;6.826;2022-09-09T08:04:51;25.00;51.30
52073;DHT22;38074;51.232;6.826;2022-09-09T08:12:07;25.00;50.80
52073;DHT22;38074;51.232;6.826;2022-09-09T08:19:24;25.10;51.00
52073;DHT22;38074;51.232;6.826;2022-09-09T08:26:42;25.20;51.00
52073;DHT22;38074;51.232;6.826;2022-09-09T08:33:58;25.30;50.70
52073;DHT22;38074;51.232;6.826;2022-09-09T08:48:59;25.40;49.80
52073;DHT22;38074;51.232;6.826;2022-09-09T08:56:23;25.30;50.00
52073;DHT22;38074;51.232;6.826;2022-09-09T09:03:43;25.40;50.10
52073;DHT22;38074;51.232;6.826;2022-09-09T09:11:02;25.50;50.00
52073;DHT22;38074;51.232;6.826;2022-09-09T09:18:18;25.50;49.90
52073;DHT22;38074;51.232;6.826;2022-09-09T09:25:39;25.50;49.60
52073;DHT22;38074;51.232;6.826;2022-09-09T09:33:00;25.50;49.50
52073;DHT22;38074;51.232;6.826;2022-09-09T09:40:19;25.50;49.90
52073;DHT22;38074;51.232;6.826;2022-09-09T09:47:35;25.50;49.70
52073;DHT22;38074;51.232;6.826;2022-09-09T09:54:52;25.50;49.70
52073;DHT22;38074;51.232;6.826;2022-09-09T10:02:24;25.60;49.30
52073;DHT22;38074;51.232;6.826;2022-09-09T10:09:41;25.60;49.30
52073;DHT22;38074;51.232;6.826;2022-09-09T10:39:38;25.60;48.50
52073;DHT22;38074;51.232;6.826;2022-09-09T11:01:51;24.90;48.10
52073;DHT22;38074;51.232;6.826;2022-09-09T11:09:15;25.20;49.10
52073;DHT22;38074;51.232;6.826;2022-09-09T11:16:49;25.20;47.90
52073;DHT22;38074;51.232;6.826;2022-09-09T11:24:12;25.20;47.80
52073;DHT22;38074;51.232;6.826;2022-09-09T11:31:45;25.00;47.80
52073;DHT22;38074;51.232;6.826;2022-09-09T11:46:35;24.90;49.30
52073;DHT22;38074;51.232;6.826;2022-09-09T11:54:00;24.90;49.50
52073;DHT22;38074;51.232;6.826;2022-09-09T12:08:55;25.00;49.70
52073;DHT22;38074;51.232;6.826;2022-09-09T12:16:29;25.00;49.70
52073;DHT22;38074;51.232;6.826;2022-09-09T12:23:52;25.00;49.40
52073;DHT22;38074;51.232;6.826;2022-09-09T12:31:11;25.00;49.50
52073;DHT22;38074;51.232;6.826;2022-09-09T12:38:40;25.00;49.50
52073;DHT22;38074;51.232;6.826;2022-09-09T12:46:02;25.00;49.10
52073;DHT22;38074;51.232;6.826;2022-09-09T12:53:35;25.00;48.60
52073;DHT22;38074;51.232;6.826;2022-09-09T13:00:53;24.90;48.60
52073;DHT22;38074;51.232;6.826;2022-09-09T13:08:12;24.90;48.60
52073;DHT22;38074;51.232;6.826;2022-09-09T13:15:29;24.90;48.80
52073;DHT22;38074;51.232;6.826;2022-09-09T13:22:45;24.90;50.10
52073;DHT22;38074;51.232;6.826;2022-09-09T13:37:41;24.90;51.30
52073;DHT22;38074;51.232;6.826;2022-09-09T13:44:58;25.00;51.40
52073;DHT22;38074;51.232;6.826;2022-09-09T13:52:17;25.00;51.70
52073;DHT22;38074;51.232;6.826;2022-09-09T13:59:33;25.00;50.70
52073;DHT22;38074;51.232;6.826;2022-09-09T14:06:50;24.90;50.30
52073;DHT22;38074;51.232;6.826;2022-09-09T14:14:06;24.80;50.10
52073;DHT22;38074;51.232;6.826;2022-09-09T14:21:21;24.90;50.20
52073;DHT22;38074;51.232;6.826;2022-09-09T14:28:37;24.90;50.60
52073;DHT22;38074;51.232;6.826;2022-09-09T14:36:00;24.90;49.90
52073;DHT22;38074;51.232;6.826;2022-09-09T14:43:15;24.90;49.90
52073;DHT22;38074;51.232;6.826;2022-09-09T14:50:31;24.80;49.30
52073;DHT22;38074;51.232;6.826;2022-09-09T14:57:47;24.50;49.20
52073;DHT22;38074;51.232;6.826;2022-09-09T15:05:02;24.30;51.00
52073;DHT22;38074;51.232;6.826;2022-09-09T15:12:19;24.50;51.30
52073;DHT22;38074;51.232;6.826;2022-09-09T15:19:36;24.70;51.60
52073;DHT22;38074;51.232;6.826;2022-09-09T15:26:53;24.90;51.80
52073;DHT22;38074;51.232;6.826;2022-09-09T15:34:09;25.10;52.30
52073;DHT22;38074;51.232;6.826;2022-09-09T15:41:25;25.20;52.10
52073;DHT22;38074;51.232;6.826;2022-09-09T15:48:41;25.30;52.10
52073;DHT22;38074;51.232;6.826;2022-09-09T15:55:56;25.30;52.50
52073;DHT22;38074;51.232;6.826;2022-09-09T16:03:12;25.30;52.70
52073;DHT22;38074;51.232;6.826;2022-09-09T16:10:28;25.20;53.20
52073;DHT22;38074;51.232;6.826;2022-09-09T16:17:43;25.20;53.50
52073;DHT22;38074;51.232;6.826;2022-09-09T16:24:59;25.20;53.70
52073;DHT22;38074;51.232;6.826;2022-09-09T16:32:15;25.20;53.80
52073;DHT22;38074;51.232;6.826;2022-09-09T16:39:31;25.20;53.80
52073;DHT22;38074;51.232;6.826;2022-09-09T16:46:48;25.20;53.90
52073;DHT22;38074;51.232;6.826;2022-09-09T16:54:05;25.20;54.00
52073;DHT22;38074;51.232;6.826;2022-09-09T17:01:23;25.20;54.10
52073;DHT22;38074;51.232;6.826;2022-09-09T17:08:39;25.20;54.10
52073;DHT22;38074;51.232;6.826;2022-09-09T17:15:56;25.20;54.20
52073;DHT22;38074;51.232;6.826;2022-09-09T17:23:12;25.30;54.40
52073;DHT22;38074;51.232;6.826;2022-09-09T17:30:34;25.30;54.40
52073;DHT22;38074;51.232;6.826;2022-09-09T17:37:50;25.40;54.70
52073;DHT22;38074;51.232;6.826;2022-09-09T17:45:06;25.40;54.70
52073;DHT22;38074;51.232;6.826;2022-09-09T17:52:22;25.40;53.80
52073;DHT22;38074;51.232;6.826;2022-09-09T17:59:38;25.50;54.40
52073;DHT22;38074;51.232;6.826;2022-09-09T18:06:53;25.50;54.40
52073;DHT22;38074;51.232;6.826;2022-09-09T18:14:12;25.60;54.40
52073;DHT22;38074;51.232;6.826;2022-09-09T18:21:29;25.70;54.70
52073;DHT22;38074;51.232;6.826;2022-09-09T18:28:49;25.70;54.10
52073;DHT22;38074;51.232;6.826;2022-09-09T18:36:10;25.70;53.90
52073;DHT22;38074;51.232;6.826;2022-09-09T18:43:25;25.70;53.60
52073;DHT22;38074;51.232;6.826;2022-09-09T18:50:41;25.70;54.20
52073;DHT22;38074;51.232;6.826;2022-09-09T18:57:56;25.70;53.60
52073;DHT22;38074;51.232;6.826;2022-09-09T19:05:13;25.70;53.60
52073;DHT22;38074;51.232;6.826;2022-09-09T19:12:28;25.70;53.70
52073;DHT22;38074;51.232;6.826;2022-09-09T19:19:44;25.70;53.60
52073;DHT22;38074;51.232;6.826;2022-09-09T19:27:02;25.70;53.60
52073;DHT22;38074;51.232;6.826;2022-09-09T19:34:18;25.70;53.60
52073;DHT22;38074;51.232;6.826;2022-09-09T19:41:35;25.70;53.70
52073;DHT22;38074;51.232;6.826;2022-09-09T19:48:51;25.70;54.40
52073;DHT22;38074;51.232;6.826;2022-09-09T19:56:07;25.70;54.30
52073;DHT22;38074;51.232;6.826;2022-09-09T20:03:25;25.80;54.50
52073;DHT22;38074;51.232;6.826;2022-09-09T20:10:49;25.80;54.50
52073;DHT22;38074;51.232;6.826;2022-09-09T20:18:05;25.80;54.50
52073;DHT22;38074;51.232;6.826;2022-09-09T20:25:21;25.80;54.60
52073;DHT22;38074;51.232;6.826;2022-09-09T20:32:39;25.90;54.60
52073;DHT22;38074;51.232;6.826;2022-09-09T20:39:54;25.80;54.60
52073;DHT22;38074;51.232;6.826;2022-09-09T20:47:10;25.80;54.20
52073;DHT22;38074;51.232;6.826;2022-09-09T20:54:28;25.80;54.10
52073;DHT22;38074;51.232;6.826;2022-09-09T21:01:47;25.80;53.90
52073;DHT22;38074;51.232;6.826;2022-09-09T21:09:03;25.80;53.80
52073;DHT22;38074;51.232;6.826;2022-09-09T21:16:18;25.80;53.70
52073;DHT22;38074;51.232;6.826;2022-09-09T21:23:35;25.80;53.60
52073;DHT22;38074;51.232;6.826;2022-09-09T21:30:52;25.80;53.50
52073;DHT22;38074;51.232;6.826;2022-09-09T21:38:14;25.80;53.40
52073;DHT22;38074;51.232;6.826;2022-09-09T21:45:34;25.80;53.30
52073;DHT22;38074;51.232;6.826;2022-09-09T21:52:50;25.70;53.20
52073;DHT22;38074;51.232;6.826;2022-09-09T22:00:07;25.70;53.10
52073;DHT22;38074;51.232;6.826;2022-09-09T22:07:31;25.70;53.00
52073;DHT22;38074;51.232;6.826;2022-09-09T22:14:47;25.70;53.00
52073;DHT22;38074;51.232;6.826;2022-09-09T22:22:03;25.70;52.80
52073;DHT22;38074;51.232;6.826;2022-09-09T22:29:18;25.70;52.80
52073;DHT22;38074;51.232;6.826;2022-09-09T22:36:33;25.70;52.70
52073;DHT22;38074;51.232;6.826;2022-09-09T22:43:49;25.70;52.60
52073;DHT22;38074;51.232;6.826;2022-09-09T22:51:07;25.70;52.50
52073;DHT22;38074;51.232;6.826;2022-09-09T22:58:26;25.70;52.40
52073;DHT22;38074;51.232;6.826;2022-09-09T23:05:55;25.70;52.40
52073;DHT22;38074;51.232;6.826;2022-09-09T23:13:11;25.70;52.30
52073;DHT22;38074;51.232;6.826;2022-09-09T23:20:27;25.70;52.20
52073;DHT22;38074;51.232;6.826;2022-09-09T23:27:42;25.70;52.10
52073;DHT22;38074;51.232;6.826;2022-09-09T23:34:58;25.70;52.00
52073;DHT22;38074;51.232;6.826;2022-09-09T23:42:13;25.60;51.90
52073;DHT22;38074;51.232;6.826;2022-09-09T23:49:29;25.60;51.80
52073;DHT22;38074;51.232;6.826;2022-09-09T23:56:44;25.60;51.70
